createdAt,value
2022-12-08T00:01:22.703Z,11.48
2022-12-08T00:03:51.637Z,11.82
2022-12-08T00:06:45.685Z,11.38
2022-12-08T00:09:25.249Z,10.93
2022-12-08T00:11:55.527Z,10.52
2022-12-08T00:14:29.544Z,11.23
2022-12-08T00:17:00.033Z,11.65
2022-12-08T00:19:29.062Z,10.50
2022-12-08T00:21:57.542Z,9.65
2022-12-08T00:24:26.819Z,9.55
2022-12-08T00:26:54.555Z,10.52
2022-12-08T00:29:22.878Z,9.65
2022-12-08T00:31:51.290Z,12.20
2022-12-08T00:34:20.926Z,12.30
2022-12-08T00:36:48.691Z,9.55
2022-12-08T00:39:17.860Z,11.27
2022-12-08T00:42:03.238Z,11.27
2022-12-08T00:44:30.957Z,11.02
2022-12-08T00:46:58.661Z,9.52
2022-12-08T00:49:27.815Z,12.38
2022-12-08T00:51:55.649Z,12.50
2022-12-08T00:54:24.106Z,13.20
2022-12-08T00:56:52.119Z,12.27
2022-12-08T00:59:20.211Z,11.55
2022-12-08T01:01:48.962Z,11.70
2022-12-08T01:04:18.510Z,13.27
2022-12-08T01:06:48.184Z,12.88
2022-12-08T01:09:17.280Z,11.32
2022-12-08T01:11:45.520Z,14.85
2022-12-08T01:14:13.671Z,12.23
2022-12-08T01:16:42.307Z,12.52
2022-12-08T01:19:12.091Z,13.40
2022-12-08T01:21:40.144Z,12.15
2022-12-08T01:24:19.027Z,11.90
2022-12-08T01:26:47.565Z,13.65
2022-12-08T01:29:15.521Z,14.10
2022-12-08T01:31:43.559Z,13.57
2022-12-08T01:34:11.680Z,12.60
2022-12-08T01:36:39.434Z,12.02
2022-12-08T01:39:09.435Z,13.80
2022-12-08T01:41:40.627Z,12.65
2022-12-08T01:44:45.462Z,14.15
2022-12-08T01:47:13.313Z,13.85
2022-12-08T01:49:41.065Z,11.75
2022-12-08T01:52:15.327Z,12.18
2022-12-08T01:54:48.379Z,11.60
2022-12-08T01:57:22.134Z,13.35
2022-12-08T01:59:55.691Z,11.63
2022-12-08T02:02:25.284Z,13.38
2022-12-08T02:04:53.050Z,13.95
2022-12-08T02:07:21.607Z,13.30
2022-12-08T02:09:49.557Z,11.98
2022-12-08T02:12:18.741Z,12.88
2022-12-08T02:14:46.505Z,10.98
2022-12-08T02:17:28.856Z,11.55
2022-12-08T02:20:34.381Z,11.95
2022-12-08T02:23:09.319Z,13.88
2022-12-08T02:25:52.774Z,14.32
2022-12-08T02:28:44.013Z,12.13
2022-12-08T02:31:25.637Z,13.30
2022-12-08T02:34:18.463Z,12.98
2022-12-08T02:36:59.994Z,14.00
2022-12-08T02:39:38.774Z,14.00
2022-12-08T02:42:13.535Z,13.07
2022-12-08T02:44:48.202Z,11.30
2022-12-08T02:47:19.231Z,13.48
2022-12-08T02:49:48.693Z,11.23
2022-12-08T02:52:42.979Z,11.55
2022-12-08T02:55:18.708Z,10.00
2022-12-08T02:58:13.045Z,11.93
2022-12-08T03:00:57.160Z,11.68
2022-12-08T03:03:33.691Z,11.32
2022-12-08T03:06:11.885Z,10.52
2022-12-08T03:08:50.757Z,12.27
2022-12-08T03:11:23.156Z,11.43
2022-12-08T03:13:53.903Z,11.93
2022-12-08T03:16:25.578Z,12.30
2022-12-08T03:18:57.717Z,13.95
2022-12-08T03:21:27.497Z,11.95
2022-12-08T03:23:57.726Z,12.50
2022-12-08T03:26:31.427Z,12.63
2022-12-08T03:28:59.583Z,11.63
2022-12-08T03:31:32.053Z,13.30
2022-12-08T03:34:01.794Z,14.23
2022-12-08T03:36:31.007Z,13.05
2022-12-08T03:38:58.789Z,16.13
2022-12-08T03:41:26.976Z,15.88
2022-12-08T03:43:57.068Z,15.23
2022-12-08T03:48:54.046Z,13.73
2022-12-08T03:51:22.588Z,15.18
2022-12-08T03:53:52.014Z,14.68
2022-12-08T03:56:24.604Z,16.52
2022-12-08T03:58:53.066Z,15.48
2022-12-08T04:01:21.332Z,14.05
2022-12-08T04:03:49.466Z,14.82
2022-12-08T04:06:17.721Z,15.07
2022-12-08T04:08:45.526Z,15.00
2022-12-08T04:11:14.828Z,14.82
2022-12-08T04:13:43.272Z,14.93
2022-12-08T04:16:16.920Z,14.73
2022-12-08T04:18:45.020Z,15.43
2022-12-08T04:21:13.069Z,15.45
2022-12-08T04:23:40.837Z,17.15
2022-12-08T04:26:09.073Z,15.18
2022-12-08T04:28:38.482Z,14.98
2022-12-08T04:31:06.619Z,13.88
2022-12-08T04:33:35.170Z,14.48
2022-12-08T04:36:03.278Z,16.25
2022-12-08T04:38:31.081Z,15.70
2022-12-08T04:40:58.813Z,17.80
2022-12-08T04:43:26.835Z,17.80
2022-12-08T04:45:56.065Z,15.07
2022-12-08T04:48:24.476Z,13.65
2022-12-08T04:50:52.519Z,16.92
2022-12-08T04:53:21.297Z,15.48
2022-12-08T04:55:49.876Z,17.08
2022-12-08T04:58:19.843Z,16.38
2022-12-08T05:00:49.066Z,16.73
2022-12-08T05:03:21.459Z,18.40
2022-12-08T05:05:54.697Z,16.15
2022-12-08T05:08:22.497Z,17.15
2022-12-08T05:10:50.270Z,15.38
2022-12-08T05:13:18.042Z,15.85
2022-12-08T05:15:45.859Z,14.38
2022-12-08T05:18:13.734Z,17.05
2022-12-08T05:20:42.817Z,14.02
2022-12-08T05:23:10.615Z,13.75
2022-12-08T05:25:38.387Z,15.98
2022-12-08T05:28:39.565Z,13.27
2022-12-08T05:30:54.323Z,12.40
2022-12-08T05:33:22.062Z,14.13
2022-12-08T05:35:51.287Z,11.60
2022-12-08T05:38:19.098Z,14.65
2022-12-08T05:40:46.819Z,12.45
2022-12-08T05:43:15.266Z,12.30
2022-12-08T05:45:43.056Z,11.55
2022-12-08T05:48:10.835Z,11.60
2022-12-08T05:50:38.625Z,11.23
2022-12-08T05:53:07.826Z,10.48
2022-12-08T05:55:35.597Z,10.00
2022-12-08T05:58:07.816Z,10.30
2022-12-08T06:00:35.989Z,10.80
2022-12-08T06:03:04.087Z,9.23
2022-12-08T06:05:33.770Z,10.80
2022-12-08T06:08:01.697Z,10.15
2022-12-08T06:10:31.175Z,10.82
2022-12-08T06:12:58.965Z,11.48
2022-12-08T06:15:26.991Z,9.93
2022-12-08T06:17:54.714Z,11.30
2022-12-08T06:20:22.488Z,12.13
2022-12-08T06:22:50.383Z,10.85
2022-12-08T06:25:18.318Z,10.68
2022-12-08T06:27:47.602Z,13.95
2022-12-08T06:30:16.234Z,16.08
2022-12-08T06:32:44.270Z,15.98
2022-12-08T06:35:12.132Z,16.98
2022-12-08T06:37:39.938Z,15.07
2022-12-08T06:40:09.102Z,16.92
2022-12-08T06:42:47.204Z,16.35
2022-12-08T06:45:18.334Z,14.82
2022-12-08T06:47:46.447Z,16.77
2022-12-08T06:50:15.085Z,14.93
2022-12-08T06:52:54.217Z,15.98
2022-12-08T06:55:57.512Z,14.52
2022-12-08T06:58:15.665Z,14.88
2022-12-08T07:00:45.259Z,12.77
2022-12-08T07:03:14.654Z,14.85
2022-12-08T07:05:42.405Z,13.60
2022-12-08T07:08:10.582Z,13.65
2022-12-08T07:10:38.729Z,13.40
2022-12-08T07:13:06.518Z,14.98
2022-12-08T07:15:34.355Z,13.27
2022-12-08T07:18:03.609Z,14.18
2022-12-08T07:20:31.439Z,14.95
2022-12-08T07:22:59.240Z,16.77
2022-12-08T07:25:26.985Z,14.57
2022-12-08T07:27:54.783Z,14.13
2022-12-08T07:30:22.805Z,12.27
2022-12-08T07:32:50.704Z,14.02
2022-12-08T07:35:19.925Z,13.95
2022-12-08T07:37:47.738Z,13.20
2022-12-08T07:40:15.923Z,14.30
2022-12-08T07:42:43.644Z,13.20
2022-12-08T07:45:11.605Z,13.45
2022-12-08T07:47:39.498Z,12.43
2022-12-08T07:50:08.852Z,13.30
2022-12-08T07:52:38.022Z,12.35
2022-12-08T07:55:06.574Z,12.07
2022-12-08T07:57:34.269Z,12.52
2022-12-08T08:00:02.492Z,13.07
2022-12-08T08:02:39.663Z,12.35
2022-12-08T08:05:08.449Z,12.77
2022-12-08T08:07:37.146Z,11.55
2022-12-08T08:10:08.007Z,11.63
2022-12-08T08:12:36.685Z,11.30
2022-12-08T08:15:07.417Z,11.32
2022-12-08T08:17:35.822Z,10.30
2022-12-08T08:20:06.952Z,10.02
2022-12-08T08:22:36.738Z,10.27
2022-12-08T08:25:06.679Z,10.45
2022-12-08T08:27:34.416Z,11.18
2022-12-08T08:30:02.730Z,10.68
2022-12-08T08:32:34.001Z,10.70
2022-12-08T08:35:02.790Z,9.85
2022-12-08T08:37:30.498Z,10.25
2022-12-08T08:39:58.261Z,10.00
2022-12-08T08:42:28.430Z,9.27
2022-12-08T08:44:56.184Z,9.50
2022-12-08T08:47:24.051Z,9.95
2022-12-08T08:49:51.923Z,9.13
2022-12-08T08:52:19.647Z,9.80
2022-12-08T08:54:47.382Z,9.43
2022-12-08T08:57:15.102Z,9.80
2022-12-08T08:59:44.248Z,9.35
2022-12-08T09:02:17.787Z,9.82
2022-12-08T09:04:46.092Z,9.10
2022-12-08T09:07:14.215Z,8.93
2022-12-08T09:09:43.235Z,8.18
2022-12-08T09:12:11.511Z,7.78
2022-12-08T09:14:39.670Z,8.68
2022-12-08T09:17:09.128Z,8.88
2022-12-08T09:19:38.097Z,9.30
2022-12-08T09:22:06.323Z,8.73
2022-12-08T09:24:35.119Z,8.60
2022-12-08T09:27:02.801Z,8.90
2022-12-08T09:29:35.751Z,8.45
2022-12-08T09:32:04.312Z,9.02
2022-12-08T09:34:33.494Z,8.65
2022-12-08T09:37:01.218Z,8.50
2022-12-08T09:39:29.419Z,8.18
2022-12-08T09:42:01.451Z,8.10
2022-12-08T09:44:48.512Z,7.82
2022-12-08T09:47:24.455Z,8.27
2022-12-08T09:50:01.236Z,9.05
2022-12-08T09:52:33.553Z,8.30
2022-12-08T09:55:05.681Z,8.48
2022-12-08T09:57:33.447Z,8.38
2022-12-08T10:00:05.501Z,6.85
2022-12-08T10:02:34.074Z,7.88
2022-12-08T10:05:03.276Z,7.75
2022-12-08T10:07:44.347Z,8.30
2022-12-08T10:10:23.742Z,7.97
2022-12-08T10:13:00.476Z,9.30
2022-12-08T10:15:40.740Z,9.15
2022-12-08T10:18:16.193Z,8.63
2022-12-08T10:20:47.804Z,9.63
2022-12-08T10:23:24.666Z,7.40
2022-12-08T10:25:56.565Z,8.07
2022-12-08T10:28:24.406Z,7.50
2022-12-08T10:30:52.294Z,8.07
2022-12-08T10:33:22.777Z,8.30
2022-12-08T10:35:54.241Z,7.70
2022-12-08T10:38:24.619Z,6.38
2022-12-08T10:40:54.253Z,8.30
2022-12-08T10:43:26.687Z,8.57
2022-12-08T10:45:54.649Z,7.53
2022-12-08T10:48:26.955Z,7.50
2022-12-08T10:50:57.957Z,8.25
2022-12-08T10:53:27.744Z,7.25
2022-12-08T10:56:07.828Z,6.93
2022-12-08T10:58:40.556Z,5.72
2022-12-08T11:01:13.944Z,6.63
2022-12-08T11:03:47.430Z,6.63
2022-12-08T11:06:20.432Z,7.03
2022-12-08T11:08:52.072Z,6.65
2022-12-08T11:11:25.880Z,7.35
2022-12-08T11:13:57.332Z,7.00
2022-12-08T11:16:25.272Z,5.78
2022-12-08T11:18:59.004Z,5.85
2022-12-08T11:21:37.509Z,6.72
2022-12-08T11:24:22.736Z,6.93
2022-12-08T11:26:54.525Z,5.78
2022-12-08T11:29:22.665Z,6.50
2022-12-08T11:31:54.516Z,5.80
2022-12-08T11:34:32.293Z,5.63
2022-12-08T11:37:02.069Z,5.10
2022-12-08T11:39:33.257Z,4.63
2022-12-08T11:42:03.729Z,5.20
2022-12-08T11:44:37.154Z,4.82
2022-12-08T11:47:11.671Z,4.25
2022-12-08T11:49:42.003Z,4.95
2022-12-08T11:52:22.126Z,4.53
2022-12-08T11:54:56.919Z,3.65
2022-12-08T11:57:27.948Z,4.25
2022-12-08T11:59:58.313Z,4.50
2022-12-08T12:02:29.173Z,4.75
2022-12-08T12:05:02.997Z,4.53
2022-12-08T12:07:48.697Z,4.05
2022-12-08T12:10:47.609Z,3.90
2022-12-08T12:13:32.312Z,4.00
2022-12-08T12:16:33.231Z,5.05
2022-12-08T12:19:04.414Z,4.05
2022-12-08T12:21:36.813Z,4.28
2022-12-08T12:24:10.740Z,4.20
2022-12-08T12:26:50.205Z,3.90
2022-12-08T12:29:21.146Z,3.95
2022-12-08T12:31:53.100Z,3.20
2022-12-08T12:34:24.435Z,3.90
2022-12-08T12:36:55.722Z,4.22
2022-12-08T12:39:29.732Z,3.85
2022-12-08T12:42:00.540Z,3.85
2022-12-08T12:44:40.704Z,4.38
2022-12-08T12:47:14.719Z,4.10
2022-12-08T12:50:08.009Z,4.20
2022-12-08T12:52:41.005Z,3.78
2022-12-08T12:55:25.528Z,4.57
2022-12-08T12:57:55.278Z,4.72
2022-12-08T13:00:24.898Z,4.55
2022-12-08T13:02:54.263Z,3.88
2022-12-08T13:05:26.157Z,4.03
2022-12-08T13:07:57.796Z,4.20
2022-12-08T13:10:29.981Z,3.78
2022-12-08T13:13:08.399Z,4.45
2022-12-08T13:15:38.805Z,4.10
2022-12-08T13:18:08.544Z,4.10
2022-12-08T13:20:43.603Z,5.28
2022-12-08T13:23:28.841Z,4.93
2022-12-08T13:26:16.785Z,4.63
2022-12-08T13:29:14.942Z,4.80
2022-12-08T13:31:50.151Z,4.90
2022-12-08T13:34:23.457Z,5.40
2022-12-08T13:37:01.085Z,4.20
2022-12-08T13:39:33.334Z,3.97
2022-12-08T13:42:06.934Z,3.97
2022-12-08T13:47:34.775Z,3.65
2022-12-08T13:56:59.484Z,3.80
2022-12-08T13:58:41.932Z,3.30
2022-12-08T14:01:16.241Z,3.97
2022-12-08T14:04:12.764Z,4.43
2022-12-08T14:06:39.842Z,4.10
2022-12-08T14:09:12.869Z,3.90
2022-12-08T14:11:43.892Z,3.70
2022-12-08T14:14:32.770Z,3.47
2022-12-08T14:17:07.146Z,3.72
2022-12-08T14:19:36.248Z,3.83
2022-12-08T14:22:11.721Z,3.42
2022-12-08T14:24:39.734Z,3.20
2022-12-08T14:27:10.237Z,3.53
2022-12-08T14:29:45.101Z,3.30
2022-12-08T14:32:31.374Z,3.63
2022-12-08T14:35:02.588Z,3.75
2022-12-08T14:37:33.433Z,3.30
2022-12-08T14:40:04.176Z,3.47
2022-12-08T14:42:42.641Z,3.58
2022-12-08T14:45:14.198Z,4.25
2022-12-08T14:47:42.957Z,3.88
2022-12-08T14:50:39.672Z,3.00
2022-12-08T14:53:14.486Z,4.10
2022-12-08T14:55:44.211Z,3.88
2022-12-08T14:58:18.519Z,4.13
2022-12-08T15:00:51.435Z,4.60
2022-12-08T15:03:22.567Z,3.67
2022-12-08T15:05:52.972Z,3.70
2022-12-08T15:08:20.789Z,3.83
2022-12-08T15:11:08.648Z,3.83
2022-12-08T15:13:36.475Z,3.75
2022-12-08T15:16:27.912Z,5.07
2022-12-08T15:19:27.581Z,3.25
2022-12-08T15:21:56.470Z,3.53
2022-12-08T15:24:26.664Z,3.42
2022-12-08T15:26:54.933Z,4.35
2022-12-08T15:29:25.642Z,5.05
2022-12-08T15:31:56.414Z,4.13
2022-12-08T15:34:24.366Z,3.95
2022-12-08T15:36:54.137Z,3.72
2022-12-08T15:39:29.501Z,4.38
2022-12-08T15:41:57.293Z,4.32
2022-12-08T15:44:25.083Z,4.22
2022-12-08T15:46:54.855Z,4.43
2022-12-08T15:49:24.695Z,4.90
2022-12-08T15:51:59.473Z,4.68
2022-12-08T15:54:35.764Z,5.03
2022-12-08T15:57:19.270Z,5.30
2022-12-08T16:02:22.562Z,5.47
2022-12-08T16:07:39.545Z,5.93
2022-12-08T16:10:09.321Z,5.82
2022-12-08T16:13:54.876Z,4.70
2022-12-08T16:15:55.099Z,6.88
2022-12-08T16:18:31.127Z,6.90
2022-12-08T16:23:47.842Z,5.18
2022-12-08T16:26:44.077Z,6.30
2022-12-08T16:29:05.735Z,8.88
2022-12-08T16:31:33.857Z,8.32
2022-12-08T16:34:03.130Z,7.97
2022-12-08T16:36:30.908Z,7.30
2022-12-08T16:38:58.716Z,7.68
2022-12-08T16:41:44.170Z,7.75
2022-12-08T16:44:11.945Z,7.70
2022-12-08T16:46:40.041Z,8.43
2022-12-08T16:49:10.439Z,6.05
2022-12-08T16:51:38.211Z,6.72
2022-12-08T16:54:06.082Z,7.07
2022-12-08T16:56:33.935Z,8.55
2022-12-08T16:59:02.219Z,7.40
2022-12-08T17:01:30.375Z,7.78
2022-12-08T17:06:47.328Z,8.52
2022-12-08T17:09:15.086Z,8.10
2022-12-08T17:11:43.861Z,11.18
2022-12-08T17:14:12.394Z,8.07
2022-12-08T17:16:40.257Z,9.70
2022-12-08T17:19:08.136Z,8.20
2022-12-08T17:21:36.039Z,9.52
2022-12-08T17:24:05.361Z,10.35
2022-12-08T17:26:33.195Z,9.50
2022-12-08T17:29:03.287Z,10.23
2022-12-08T17:31:32.259Z,10.18
2022-12-08T17:34:00.928Z,10.10
2022-12-08T17:36:28.689Z,11.65
2022-12-08T17:38:57.071Z,10.73
2022-12-08T17:41:26.271Z,11.35
2022-12-08T17:43:54.041Z,11.75
2022-12-08T17:46:23.217Z,11.40
2022-12-08T17:48:51.200Z,12.98
2022-12-08T17:51:19.239Z,11.68
2022-12-08T17:53:47.240Z,12.50
2022-12-08T17:56:16.652Z,11.13
2022-12-08T17:58:51.063Z,12.60
2022-12-08T18:01:22.536Z,12.25
2022-12-08T18:03:50.390Z,11.07
2022-12-08T18:06:18.473Z,13.50
2022-12-08T18:08:46.305Z,11.07
2022-12-08T18:11:17.038Z,11.68
2022-12-08T18:13:46.738Z,11.40
2022-12-08T18:16:15.069Z,11.15
2022-12-08T18:18:43.281Z,11.20
2022-12-08T18:21:11.385Z,11.90
2022-12-08T18:23:40.154Z,10.80
2022-12-08T18:26:09.176Z,14.15
2022-12-08T18:28:37.027Z,12.35
2022-12-08T18:31:11.020Z,13.68
2022-12-08T18:33:40.983Z,15.75
2022-12-08T18:36:10.468Z,12.75
2022-12-08T18:38:38.550Z,15.00
2022-12-08T18:41:08.191Z,12.93
2022-12-08T18:43:36.674Z,13.55
2022-12-08T18:46:07.608Z,16.33
2022-12-08T18:48:38.141Z,14.77
2022-12-08T18:51:10.678Z,15.63
2022-12-08T18:53:39.035Z,11.98
2022-12-08T18:56:08.072Z,13.25
2022-12-08T18:58:36.153Z,12.70
2022-12-08T19:01:04.386Z,12.88
2022-12-08T19:03:32.205Z,13.50
2022-12-08T19:06:05.068Z,12.38
2022-12-08T19:08:32.987Z,13.45
2022-12-08T19:11:01.174Z,13.88
2022-12-08T19:13:29.269Z,11.73
2022-12-08T19:15:57.644Z,14.68
2022-12-08T19:18:25.435Z,12.73
2022-12-08T19:20:56.978Z,13.30
2022-12-08T19:23:26.242Z,12.13
2022-12-08T19:25:54.013Z,14.07
2022-12-08T19:28:21.827Z,14.07
2022-12-08T19:30:49.753Z,14.32
2022-12-08T19:33:17.602Z,11.43
2022-12-08T19:35:52.227Z,13.48
2022-12-08T19:38:20.841Z,12.05
2022-12-08T19:41:07.464Z,15.00
2022-12-08T19:43:52.830Z,13.80
2022-12-08T19:46:20.863Z,11.32
2022-12-08T19:48:48.854Z,14.00
2022-12-08T19:51:16.720Z,13.70
2022-12-08T19:53:47.808Z,19.50
2022-12-08T19:56:17.236Z,13.57
2022-12-08T19:58:45.000Z,12.95
2022-12-08T20:01:12.911Z,12.98
2022-12-08T20:03:40.782Z,12.93
2022-12-08T20:06:12.585Z,14.30
2022-12-08T20:08:40.401Z,12.38
2022-12-08T20:11:08.314Z,12.70
2022-12-08T20:13:46.089Z,12.45
2022-12-08T20:16:14.604Z,12.10
2022-12-08T20:18:44.092Z,12.57
2022-12-08T20:21:12.890Z,13.20
2022-12-08T20:23:40.664Z,11.27
2022-12-08T20:26:10.002Z,12.15
2022-12-08T20:28:39.838Z,13.75
2022-12-08T20:31:07.806Z,13.55
2022-12-08T20:33:35.635Z,10.32
2022-12-08T20:36:07.523Z,12.32
2022-12-08T20:38:35.389Z,12.75
2022-12-08T20:41:03.094Z,10.85
2022-12-08T20:43:30.808Z,12.13
2022-12-08T20:46:00.042Z,12.30
2022-12-08T20:48:27.915Z,11.55
2022-12-08T20:50:55.907Z,13.05
2022-12-08T20:53:23.801Z,10.55
2022-12-08T20:55:51.844Z,12.82
2022-12-08T20:58:19.654Z,12.73
2022-12-08T21:00:47.756Z,10.73
2022-12-08T21:03:18.631Z,12.07
2022-12-08T21:05:50.397Z,11.95
2022-12-08T21:08:19.236Z,13.70
2022-12-08T21:10:53.796Z,13.52
2022-12-08T21:13:21.849Z,13.75
2022-12-08T21:15:49.899Z,15.93
2022-12-08T21:18:19.291Z,14.23
2022-12-08T21:20:48.247Z,13.73
2022-12-08T21:23:17.162Z,16.05
2022-12-08T21:25:46.376Z,13.77
2022-12-08T21:28:14.313Z,13.27
2022-12-08T21:30:43.112Z,12.38
2022-12-08T21:33:11.253Z,12.85
2022-12-08T21:35:40.736Z,15.20
2022-12-08T21:38:08.626Z,15.25
2022-12-08T21:40:36.693Z,14.63
2022-12-08T21:43:04.855Z,16.15
2022-12-08T21:45:35.008Z,16.13
2022-12-08T21:48:10.892Z,15.02
2022-12-08T21:53:08.697Z,13.20
2022-12-08T21:55:36.577Z,13.35
2022-12-08T21:58:04.491Z,14.00
2022-12-08T22:00:33.095Z,13.77
2022-12-08T22:03:01.230Z,15.27
2022-12-08T22:05:29.239Z,16.58
2022-12-08T22:07:58.869Z,15.55
2022-12-08T22:10:26.780Z,17.10
2022-12-08T22:12:54.601Z,17.38
2022-12-08T22:15:22.432Z,17.63
2022-12-08T22:17:50.426Z,19.17
2022-12-08T22:20:18.731Z,16.52
2022-12-08T22:22:46.862Z,16.75
2022-12-08T22:25:16.161Z,17.05
2022-12-08T22:27:44.139Z,22.27
2022-12-08T22:30:13.224Z,22.10
2022-12-08T22:32:41.815Z,24.00
2022-12-08T22:35:10.662Z,21.02
2022-12-08T22:37:38.645Z,20.98
2022-12-08T22:40:08.834Z,23.65
2022-12-08T22:42:38.164Z,18.73
2022-12-08T22:45:06.778Z,19.80
2022-12-08T22:47:34.780Z,20.05
2022-12-08T22:50:02.713Z,18.92
2022-12-08T22:52:30.537Z,19.15
2022-12-08T22:54:58.321Z,18.25
2022-12-08T22:57:26.168Z,19.45
2022-12-08T22:59:55.422Z,20.25
2022-12-08T23:02:23.212Z,19.23
2022-12-08T23:04:51.250Z,17.77
2022-12-08T23:07:19.128Z,19.98
2022-12-08T23:09:47.179Z,19.05
2022-12-08T23:12:14.898Z,19.35
2022-12-08T23:14:42.749Z,18.67
2022-12-08T23:17:12.062Z,15.95
2022-12-08T23:19:40.211Z,16.23
2022-12-08T23:22:07.993Z,17.17
2022-12-08T23:24:35.778Z,20.27
2022-12-08T23:27:03.634Z,17.45
2022-12-08T23:29:31.415Z,21.73
2022-12-08T23:31:59.191Z,18.25
2022-12-08T23:34:28.311Z,18.83
2022-12-08T23:36:56.201Z,17.38
2022-12-08T23:39:24.871Z,16.95
2022-12-08T23:41:52.806Z,15.45
2022-12-08T23:44:20.661Z,16.83
2022-12-08T23:46:48.546Z,17.23
2022-12-08T23:49:16.503Z,16.42
2022-12-08T23:51:45.626Z,17.17
2022-12-08T23:54:13.782Z,17.88
2022-12-08T23:56:41.753Z,17.48
2022-12-08T23:59:09.525Z,16.58
